Defoe, Kentucky
Current Conditions -  °F | °C
As of 10:53 AM on Sunday 23 Nov 2014 (Local Time) from KFFT Reporting Station
Broken Clouds Broken Clouds  
Wind Chill: 14°   Ceiling: 6000
Heat Index: 14°   Visibility: 10mi
Dew Point:   Wind: 8mph
Humidity: 56%   Direction: 140°SE
Pressure: 29.88"   Gusts: NA
Location:  38.369°N, 85.0622°W
Report Text: KFFT 231553Z AUTO 14007KT 10SM BKN060 BKN095 14/06 A2988 RMK AO2 SLP118 T01440056
Loading
Personal Weather Stations






























Interactive Weather Map New forecast layout! Learn more

10-Day Weather Forecast

Advertisements
Track Severe Weather on mobile